createdAt,value
2023-11-10T00:06:16.117Z,0.12
2023-11-10T00:16:16.119Z,0.12
2023-11-10T00:26:16.052Z,0.12
2023-11-10T00:36:16.058Z,0.12
2023-11-10T00:46:16.108Z,0.12
2023-11-10T00:56:16.059Z,0.12
2023-11-10T01:06:16.205Z,0.119
2023-11-10T01:16:16.123Z,0.119
2023-11-10T01:26:16.040Z,0.119
2023-11-10T01:36:15.810Z,0.119
2023-11-10T01:46:16.298Z,0.119
2023-11-10T01:56:16.032Z,0.119
2023-11-10T02:06:16.072Z,0.118
2023-11-10T02:16:15.963Z,0.118
2023-11-10T02:26:15.752Z,0.118
2023-11-10T02:36:15.948Z,0.118
2023-11-10T02:46:15.969Z,0.118
2023-11-10T02:56:15.893Z,0.117
2023-11-10T03:06:15.913Z,0.117
2023-11-10T03:16:15.893Z,0.117
2023-11-10T03:26:15.886Z,0.117
2023-11-10T03:36:15.894Z,0.118
2023-11-10T03:46:15.876Z,0.117
2023-11-10T03:56:15.380Z,0.118
2023-11-10T04:06:15.633Z,0.117
2023-11-10T04:16:15.877Z,0.117
2023-11-10T04:26:15.766Z,0.117
2023-11-10T04:36:15.900Z,0.117
2023-11-10T04:46:15.838Z,0.117
2023-11-10T04:56:15.815Z,0.117
2023-11-10T05:06:15.777Z,0.117
2023-11-10T05:16:15.801Z,0.115
2023-11-10T05:26:15.755Z,0.116
2023-11-10T05:36:15.801Z,0.116
2023-11-10T05:46:15.729Z,0.116
2023-11-10T05:56:15.731Z,0.116
2023-11-10T06:06:15.771Z,0.117
2023-11-10T06:16:15.723Z,0.115
2023-11-10T06:26:15.689Z,0.115
2023-11-10T06:36:15.739Z,0.115
2023-11-10T06:46:15.735Z,0.115
2023-11-10T06:56:15.672Z,0.115
2023-11-10T07:06:15.659Z,0.114
2023-11-10T07:16:15.838Z,0.114
2023-11-10T07:26:15.073Z,0.114
2023-11-10T07:36:15.628Z,0.114
2023-11-10T07:46:15.723Z,0.115
2023-11-10T07:56:15.604Z,0.115
2023-11-10T08:06:15.586Z,0.114
2023-11-10T08:16:15.634Z,0.115
2023-11-10T08:26:15.574Z,0.114
2023-11-10T08:36:15.347Z,0.114
2023-11-10T08:46:15.598Z,0.114
2023-11-10T08:56:15.560Z,0.114
2023-11-10T09:06:15.346Z,0.114
2023-11-10T09:16:15.376Z,0.112
2023-11-10T09:26:15.513Z,0.114
2023-11-10T09:36:15.479Z,0.114
2023-11-10T09:46:15.552Z,0.114
2023-11-10T09:56:15.535Z,0.114
2023-11-10T10:06:15.268Z,0.114
2023-11-10T10:16:15.557Z,0.114
2023-11-10T10:26:15.489Z,0.113
2023-11-10T10:36:15.389Z,0.113
2023-11-10T10:46:15.516Z,0.111
2023-11-10T10:56:15.212Z,0.115
2023-11-10T11:06:15.402Z,0.116
2023-11-10T11:16:15.489Z,0.116
2023-11-10T11:26:15.381Z,0.117
2023-11-10T11:36:15.404Z,0.117
2023-11-10T11:46:15.417Z,0.117
2023-11-10T11:56:15.332Z,0.115
2023-11-10T12:06:15.339Z,0.117
2023-11-10T12:16:20.625Z,0.116
2023-11-10T12:26:15.273Z,0.115
2023-11-10T12:36:15.291Z,0.114
2023-11-10T12:46:15.311Z,0.114
2023-11-10T12:56:15.275Z,0.114
2023-11-10T13:06:15.269Z,0.114
2023-11-10T13:16:15.342Z,0.115
2023-11-10T13:26:15.249Z,0.116
2023-11-10T13:36:15.179Z,0.113
2023-11-10T13:46:17.935Z,0.114
2023-11-10T13:56:15.194Z,0.113
2023-11-10T14:06:15.199Z,0.113
2023-11-10T14:16:15.353Z,0.113
2023-11-10T14:26:15.311Z,0.113
2023-11-10T14:36:14.949Z,0.112
2023-11-10T14:46:15.202Z,0.112
2023-11-10T14:56:15.136Z,0.112
2023-11-10T15:06:15.109Z,0.112
2023-11-10T15:16:15.203Z,0.112
2023-11-10T15:26:15.078Z,0.112
2023-11-10T15:36:15.092Z,0.112
2023-11-10T15:46:15.153Z,0.111
2023-11-10T15:56:15.057Z,0.111
2023-11-10T16:06:15.061Z,0.111
2023-11-10T16:16:15.055Z,0.111
2023-11-10T16:26:15.034Z,0.111
2023-11-10T16:36:15.028Z,0.111
2023-11-10T16:46:15.191Z,0.111
2023-11-10T16:56:14.994Z,0.111
2023-11-10T17:06:14.934Z,0.111
2023-11-10T17:16:15.073Z,0.111
2023-11-10T17:26:14.974Z,0.111
2023-11-10T17:36:14.986Z,0.111
2023-11-10T17:46:15.005Z,0.111
2023-11-10T17:56:14.927Z,0.111
2023-11-10T18:06:14.942Z,0.111
2023-11-10T18:16:15.061Z,0.111
2023-11-10T18:26:14.922Z,0.111
2023-11-10T18:36:14.881Z,0.111
2023-11-10T18:46:15.087Z,0.111
2023-11-10T19:06:14.650Z,0.112
2023-11-10T19:16:14.902Z,0.112
2023-11-10T19:26:14.257Z,0.111
2023-11-10T19:36:14.822Z,0.109
2023-11-10T19:46:15.814Z,0.109
2023-11-10T19:56:14.824Z,0.109
2023-11-10T20:06:15.063Z,0.109
2023-11-10T20:16:14.798Z,0.108
2023-11-10T20:26:14.780Z,0.108
2023-11-10T20:36:14.779Z,0.107
2023-11-10T20:46:14.789Z,0.107
2023-11-10T20:56:14.718Z,0.107
2023-11-10T21:06:14.769Z,0.107
2023-11-10T21:16:14.748Z,0.107
2023-11-10T21:26:14.717Z,0.107
2023-11-10T21:36:14.737Z,0.107
2023-11-10T21:46:14.732Z,0.107
2023-11-10T21:56:14.680Z,0.107
2023-11-10T22:06:14.651Z,0.107
2023-11-10T22:16:14.680Z,0.107
2023-11-10T22:26:14.651Z,0.107
2023-11-10T22:36:14.634Z,0.106
2023-11-10T22:46:14.643Z,0.106
2023-11-10T22:56:14.608Z,0.106
2023-11-10T23:06:14.616Z,0.107
2023-11-10T23:16:14.580Z,0.107
2023-11-10T23:26:14.593Z,0.107
2023-11-10T23:36:14.616Z,0.108
2023-11-10T23:46:14.591Z,0.109
2023-11-10T23:56:17.789Z,0.115
